Time;durP1;ratioP1;P1;durP2;ratioP2;P2;SDS_P1;SDS_P2;PMS_P1;PMS_P2;Temp;Humidity;BMP_temperature;BMP_pressure;BME280_temperature;BME280_humidity;BME280_pressure;Samples;Min_cycle;Max_cycle;Signal;HPM_P1;HPM_P2
2022/04/26 09:29:46;;;;;;;5.35;2.53;;;;;;;;;;8464598;27;20128;-71
2022/04/26 09:33:49;;;;;;;7.90;2.83;;;;;;;;;;8457518;28;20027;-72
2022/04/26 09:37:50;;;;;;;7.18;2.65;;;;;;;;;;8434959;28;20012;-70
2022/04/26 09:41:52;;;;;;;6.85;2.50;;;;;;;;;;8424048;28;20021;-69
2022/04/26 09:45:56;;;;;;;3.92;2.22;;;;;;;;;;8425841;28;20032;-70
2022/04/26 09:49:57;;;;;;;5.13;2.67;;;;;;;;;;8426451;28;20072;-70
2022/04/26 09:53:58;;;;;;;5.85;2.45;;;;;;;;;;8421588;28;20039;-69
2022/04/26 09:57:59;;;;;;;4.18;2.65;;;;;;;;;;8422613;28;20035;-70
2022/04/26 10:02:00;;;;;;;4.25;2.22;;;;;;;;;;8421993;28;20031;-71
2022/04/26 10:06:05;;;;;;;3.75;2.42;;;;;;;;;;8422670;28;20043;-70
2022/04/26 10:10:07;;;;;;;5.97;2.50;;;;;;;;;;8422421;28;20025;-70
2022/04/26 10:14:09;;;;;;;6.13;2.38;;;;;;;;;;8425526;28;20025;-70
2022/04/26 10:18:45;;;;;;;7.80;2.50;;;;;;;;;;8423040;28;20031;-70
2022/04/26 10:22:55;;;;;;;6.50;2.50;;;;;;;;;;8374053;28;20047;-68
2022/04/26 10:27:15;;;;;;;8.82;2.78;;;;;;;;;;8425573;28;20088;-69
2022/04/26 10:31:22;;;;;;;4.95;2.42;;;;;;;;;;8425720;28;20467;-70
2022/04/26 10:35:25;;;;;;;4.90;2.08;;;;;;;;;;8425677;28;20048;-70
2022/04/26 10:39:27;;;;;;;6.32;2.10;;;;;;;;;;8411447;28;20472;-70
2022/04/26 10:43:28;;;;;;;4.88;2.13;;;;;;;;;;8402672;28;20025;-72
2022/04/26 10:47:29;;;;;;;3.92;2.10;;;;;;;;;;8400118;28;20453;-71
2022/04/26 10:51:36;;;;;;;4.00;2.03;;;;;;;;;;8402351;28;20021;-71
2022/04/26 10:55:37;;;;;;;3.92;2.10;;;;;;;;;;8402768;28;20063;-71
2022/04/26 10:59:43;;;;;;;5.13;1.92;;;;;;;;;;8403023;28;20069;-72
2022/04/26 11:03:55;;;;;;;3.83;1.80;;;;;;;;;;8402709;28;20029;-71
2022/04/26 11:07:55;;;;;;;5.20;2.53;;;;;;;;;;8402523;28;20386;-72
2022/04/26 11:11:57;;;;;;;6.00;2.10;;;;;;;;;;8401012;28;20027;-74
2022/04/26 11:16:09;;;;;;;3.08;2.00;;;;;;;;;;8402792;28;20546;-72
2022/04/26 11:20:17;;;;;;;5.40;2.10;;;;;;;;;;8402549;28;20048;-72
2022/04/26 11:28:39;;;;;;;4.32;1.58;;;;;;;;;;8401477;28;20170;-72
2022/04/26 11:32:42;;;;;;;4.80;2.08;;;;;;;;;;8401975;28;20056;-73
2022/04/26 11:36:43;;;;;;;2.05;1.58;;;;;;;;;;8401379;28;20081;-72
2022/04/26 11:40:47;;;;;;;4.55;1.70;;;;;;;;;;8401338;28;20360;-71
2022/04/26 11:45:00;;;;;;;4.95;1.77;;;;;;;;;;8401752;28;20032;-65
2022/04/26 11:49:01;;;;;;;2.55;1.55;;;;;;;;;;8400978;28;20037;-70
2022/04/26 11:53:06;;;;;;;5.35;1.70;;;;;;;;;;8400485;28;20035;-73
2022/04/26 11:57:07;;;;;;;3.00;1.50;;;;;;;;;;8400651;28;20037;-74
2022/04/26 12:01:15;;;;;;;4.15;1.90;;;;;;;;;;8400559;28;20025;-74
2022/04/26 12:05:20;;;;;;;3.97;1.58;;;;;;;;;;8400617;28;20107;-73
2022/04/26 12:09:23;;;;;;;3.28;1.67;;;;;;;;;;8400325;28;20174;-70
2022/04/26 12:13:30;;;;;;;3.78;1.60;;;;;;;;;;8397787;28;20494;-72
2022/04/26 12:17:31;;;;;;;1.88;1.50;;;;;;;;;;8395546;28;20017;-72
2022/04/26 12:21:48;;;;;;;2.08;1.55;;;;;;;;;;8388537;28;20581;-71
2022/04/26 12:25:56;;;;;;;5.00;1.48;;;;;;;;;;8397703;28;20021;-70
2022/04/26 12:29:57;;;;;;;3.65;1.45;;;;;;;;;;8399631;28;20090;-72
2022/04/26 12:34:13;;;;;;;5.15;1.58;;;;;;;;;;8398524;28;20039;-71
2022/04/26 12:38:14;;;;;;;2.75;1.55;;;;;;;;;;8399128;28;20032;-72
2022/04/26 12:42:16;;;;;;;2.25;1.50;;;;;;;;;;8399553;28;20028;-68
2022/04/26 12:46:17;;;;;;;3.70;1.67;;;;;;;;;;8398776;28;20083;-68
2022/04/26 12:50:38;;;;;;;4.55;1.60;;;;;;;;;;8400621;28;20028;-68
2022/04/26 12:54:41;;;;;;;2.78;1.42;;;;;;;;;;8399087;28;20371;-72
2022/04/26 12:58:43;;;;;;;3.08;1.40;;;;;;;;;;8398178;28;20024;-72
2022/04/26 13:02:44;;;;;;;3.92;1.65;;;;;;;;;;8398131;28;20443;-68
2022/04/26 13:06:45;;;;;;;3.85;1.20;;;;;;;;;;8398904;28;20020;-69
2022/04/26 13:10:48;;;;;;;6.57;1.50;;;;;;;;;;8398627;28;20041;-71
2022/04/26 13:14:49;;;;;;;3.88;1.52;;;;;;;;;;8395946;28;20078;-71
2022/04/26 13:18:50;;;;;;;4.00;1.50;;;;;;;;;;8397793;28;20529;-70
2022/04/26 13:22:51;;;;;;;4.88;1.35;;;;;;;;;;8395910;28;20037;-71
2022/04/26 13:26:51;;;;;;;7.07;1.60;;;;;;;;;;8398014;28;20056;-71
2022/04/26 13:30:53;;;;;;;4.17;1.60;;;;;;;;;;8398148;28;20383;-71
2022/04/26 13:34:53;;;;;;;8.57;1.80;;;;;;;;;;8396545;28;20266;-71
2022/04/26 13:38:55;;;;;;;7.43;1.85;;;;;;;;;;8397260;28;20040;-71
2022/04/26 13:42:56;;;;;;;;;;;;;;;;;;8397865;28;20105;-71
2022/04/26 13:46:58;;;;;;;2.70;1.30;;;;;;;;;;8397368;28;20021;-71
2022/04/26 13:50:59;;;;;;;5.68;1.42;;;;;;;;;;8396198;28;20025;-71
2022/04/26 13:55:00;;;;;;;3.42;1.50;;;;;;;;;;8396171;28;20037;-70
2022/04/26 13:59:01;;;;;;;4.10;1.60;;;;;;;;;;8397155;28;20353;-70
2022/04/26 14:03:02;;;;;;;3.23;1.40;;;;;;;;;;8396592;28;20032;-70
2022/04/26 14:07:03;;;;;;;6.57;1.85;;;;;;;;;;8396899;28;20465;-70
2022/04/26 14:11:07;;;;;;;4.15;1.40;;;;;;;;;;8396362;28;20429;-70
2022/04/26 14:23:48;;;;;;;4.90;1.73;;;;;;;;;;8393192;28;20028;-69
2022/04/26 14:27:50;;;;;;;3.53;1.58;;;;;;;;;;8403053;28;20047;-69
2022/04/26 14:31:51;;;;;;;3.75;1.58;;;;;;;;;;8400415;28;20060;-69
2022/04/26 14:35:53;;;;;;;5.90;1.30;;;;;;;;;;8399384;28;20037;-69
2022/04/26 14:39:54;;;;;;;5.57;1.50;;;;;;;;;;8400399;28;20029;-69
2022/04/26 14:43:55;;;;;;;3.47;1.40;;;;;;;;;;8402566;28;20103;-70
2022/04/26 14:47:56;;;;;;;2.65;1.48;;;;;;;;;;8401135;28;20056;-69
2022/04/26 14:51:57;;;;;;;3.07;1.53;;;;;;;;;;8402641;28;20021;-68
2022/04/26 14:55:59;;;;;;;5.70;1.60;;;;;;;;;;8401465;28;20162;-68
2022/04/26 15:00:00;;;;;;;4.88;1.50;;;;;;;;;;8400749;28;20017;-68
2022/04/26 15:04:01;;;;;;;4.13;1.17;;;;;;;;;;8401951;28;20067;-75
2022/04/26 15:16:42;;;;;;;3.38;1.80;;;;;;;;;;8401846;28;20592;-73
2022/04/26 15:20:49;;;;;;;5.28;1.50;;;;;;;;;;8401973;28;20017;-71
2022/04/26 15:24:51;;;;;;;3.63;1.40;;;;;;;;;;8399485;28;20031;-69
2022/04/26 15:28:52;;;;;;;4.28;1.55;;;;;;;;;;8398899;28;20060;-70
2022/04/26 15:32:53;;;;;;;7.00;1.58;;;;;;;;;;8399548;28;20032;-70
2022/04/26 15:36:54;;;;;;;5.07;1.70;;;;;;;;;;8401221;28;20467;-70
2022/04/26 15:41:05;;;;;;;6.17;1.50;;;;;;;;;;8416569;28;20073;-72
2022/04/26 15:45:06;;;;;;;5.70;1.85;;;;;;;;;;8399065;28;20033;-68
2022/04/26 15:49:07;;;;;;;6.65;1.83;;;;;;;;;;8399860;28;20090;-68
2022/04/26 15:53:08;;;;;;;6.20;2.17;;;;;;;;;;8399171;28;20479;-68
2022/04/26 15:57:11;;;;;;;5.80;1.42;;;;;;;;;;8399924;28;20036;-67
2022/04/26 16:01:12;;;;;;;5.18;1.63;;;;;;;;;;8398847;28;20484;-67
2022/04/26 16:05:13;;;;;;;6.23;1.67;;;;;;;;;;8398520;28;20103;-66
